Terminal Aerodrome Forecast
Issued by NWS St Louis, MO

Home | Current Version | Previous Version | Graphics & Text | Print | Product List | Glossary On
Versions: 1 2 3 4 5 6 7 8 9 10 11 12 13 14 15 16 17 18 19 20 21 22
000
FTUS43 KLSX 030258 AAA
TAFSTL
TAF AMD
KSTL 030258Z 0303/0406 23006KT P6SM BKN250
     FM031500 28008KT P6SM FEW030 SCT100
     FM031900 32007KT P6SM VCTS SCT030CB SCT100
     FM040000 VRB04KT P6SM SCT100=

USA.gov is the U.S. government's official web portal to all federal, state and local government web resources and services.